Time;durP1;ratioP1;P1;durP2;ratioP2;P2;SDS_P1;SDS_P2;PMS_P1;PMS_P2;Temp;Humidity;BMP_temperature;BMP_pressure;BME280_temperature;BME280_humidity;BME280_pressure;Samples;Min_cycle;Max_cycle;Signal;HPM_P1;HPM_P2
2023/08/10 00:00:11;;;;;;;0.90;0.80;;;;;;;17.30;86.92;99842.06;335973;28;18107;-63
2023/08/10 00:00:25;;;;;;;0.65;0.60;;;;;;;17.31;87.04;99838.50;333715;28;18511;-64
2023/08/10 00:00:37;;;;;;;0.60;0.50;;;;;;;17.31;87.49;99838.50;336261;28;4652;-63
2023/08/10 00:00:49;;;;;;;0.50;0.50;;;;;;;17.29;87.31;99835.97;333295;28;5211;-64
2023/08/10 00:01:01;;;;;;;0.70;0.50;;;;;;;17.28;87.31;99834.25;336545;28;4731;-63
2023/08/10 00:01:13;;;;;;;0.73;0.60;;;;;;;17.27;87.03;99840.47;335337;28;11792;-64
2023/08/10 00:01:25;;;;;;;1.13;0.70;;;;;;;17.28;87.25;99838.69;335709;28;4827;-63
2023/08/10 00:01:39;;;;;;;0.98;0.55;;;;;;;17.29;86.93;99843.84;336246;28;5949;-63
2023/08/10 00:01:51;;;;;;;0.70;0.50;;;;;;;17.32;86.85;99842.81;333507;28;18012;-62
2023/08/10 00:02:03;;;;;;;0.60;0.50;;;;;;;17.32;86.47;99845.44;337375;28;9557;-63
2023/08/10 00:02:16;;;;;;;0.60;0.60;;;;;;;17.32;86.38;99840.19;329716;28;18360;-63
2023/08/10 00:02:28;;;;;;;0.65;0.60;;;;;;;17.31;86.32;99835.88;335903;28;5199;-63
2023/08/10 00:02:40;;;;;;;0.70;0.63;;;;;;;17.30;86.23;99840.28;329090;28;5248;-61
2023/08/10 00:02:53;;;;;;;0.75;0.68;;;;;;;17.27;86.60;99832.59;336742;28;4654;-62
2023/08/10 00:03:06;;;;;;;0.80;0.63;;;;;;;17.27;86.74;99842.25;333663;28;16990;-63
2023/08/10 00:03:18;;;;;;;0.60;0.50;;;;;;;17.26;86.98;99840.53;336058;28;4678;-64
2023/08/10 00:03:30;;;;;;;0.50;0.50;;;;;;;17.24;86.84;99839.78;333588;28;17895;-62
2023/08/10 00:03:42;;;;;;;0.90;0.65;;;;;;;17.22;87.00;99839.03;331885;28;4759;-62
2023/08/10 00:03:54;;;;;;;1.00;0.70;;;;;;;17.21;87.05;99839.97;333457;28;4870;-64
2023/08/10 00:04:06;;;;;;;1.05;0.55;;;;;;;17.22;87.03;99834.63;336545;28;4696;-61
2023/08/10 00:04:19;;;;;;;0.88;0.60;;;;;;;17.23;87.08;99840.75;335783;28;4657;-62
2023/08/10 00:04:32;;;;;;;0.95;0.60;;;;;;;17.22;86.87;99844.28;333375;28;18221;-63
2023/08/10 00:04:44;;;;;;;0.70;0.60;;;;;;;17.23;86.99;99838.13;334066;28;11773;-64
2023/08/10 00:04:56;;;;;;;0.75;0.50;;;;;;;17.24;86.85;99839.78;336634;28;4730;-62
2023/08/10 00:05:09;;;;;;;0.73;0.50;;;;;;;17.24;86.79;99845.03;335551;28;4754;-62
2023/08/10 00:05:21;;;;;;;0.60;0.50;;;;;;;17.25;86.85;99841.50;332855;28;17607;-64
2023/08/10 00:05:34;;;;;;;0.73;0.60;;;;;;;17.26;86.87;99844.00;335862;28;4480;-63
2023/08/10 00:05:46;;;;;;;0.82;0.73;;;;;;;17.27;86.78;99848.34;333752;28;16337;-64
2023/08/10 00:05:57;;;;;;;0.80;0.80;;;;;;;17.28;87.14;99846.56;336463;28;4643;-63
2023/08/10 00:06:11;;;;;;;0.63;0.63;;;;;;;17.27;87.20;99837.84;336272;28;4663;-62
2023/08/10 00:06:23;;;;;;;0.60;0.50;;;;;;;17.28;86.96;99843.94;333568;28;18321;-63
2023/08/10 00:06:35;;;;;;;0.70;0.50;;;;;;;17.27;86.82;99843.09;330957;28;4765;-62
2023/08/10 00:06:47;;;;;;;0.52;0.50;;;;;;;17.25;86.65;99842.34;332559;28;17960;-63
2023/08/10 00:06:59;;;;;;;0.63;0.60;;;;;;;17.27;86.77;99842.25;336936;28;5199;-63
2023/08/10 00:07:11;;;;;;;0.70;0.60;;;;;;;17.27;86.66;99837.00;335329;28;8017;-62
2023/08/10 00:07:23;;;;;;;1.10;0.52;;;;;;;17.26;86.89;99845.81;335270;28;5503;-63
2023/08/10 00:07:36;;;;;;;1.10;0.55;;;;;;;17.27;86.71;99842.25;335550;28;4574;-62
2023/08/10 00:07:48;;;;;;;0.60;0.50;;;;;;;17.25;86.45;99842.34;333014;28;18355;-64
2023/08/10 00:08:00;;;;;;;2.53;0.63;;;;;;;17.25;86.82;99844.13;336359;28;4828;-63
2023/08/10 00:08:12;;;;;;;2.65;0.70;;;;;;;17.26;86.56;99846.63;329221;28;18221;-63
2023/08/10 00:08:24;;;;;;;2.15;0.73;;;;;;;17.26;86.48;99846.63;335869;28;4546;-63
2023/08/10 00:08:36;;;;;;;0.77;0.68;;;;;;;17.24;86.84;99842.41;335770;28;4696;-63
2023/08/10 00:08:50;;;;;;;0.70;0.70;;;;;;;17.24;86.76;99842.41;331490;28;18078;-63
2023/08/10 00:09:02;;;;;;;0.70;0.70;;;;;;;17.24;86.77;99838.00;334762;28;16430;-63
2023/08/10 00:09:14;;;;;;;0.65;0.65;;;;;;;17.21;87.28;99832.94;336239;28;5030;-62
2023/08/10 00:09:26;;;;;;;0.73;0.60;;;;;;;17.23;87.12;99838.13;334245;28;10792;-62
2023/08/10 00:09:38;;;;;;;0.70;0.60;;;;;;;17.21;86.80;99837.34;334440;28;18116;-63
2023/08/10 00:09:50;;;;;;;0.73;0.60;;;;;;;17.21;87.21;99843.44;336763;28;5169;-62
2023/08/10 00:10:03;;;;;;;0.60;0.60;;;;;;;17.21;87.10;99839.97;333851;28;17959;-62
2023/08/10 00:10:15;;;;;;;0.60;0.60;;;;;;;17.20;87.07;99840.91;335360;28;4812;-63
2023/08/10 00:10:28;;;;;;;0.60;0.60;;;;;;;17.20;86.99;99835.66;334069;28;18582;-63
2023/08/10 00:10:40;;;;;;;0.60;0.60;;;;;;;17.17;87.17;99837.50;336523;28;4712;-63
2023/08/10 00:10:52;;;;;;;0.57;0.57;;;;;;;17.17;87.39;99836.66;334018;28;16571;-64
2023/08/10 00:11:04;;;;;;;0.60;0.60;;;;;;;17.15;87.66;99839.38;336535;28;5185;-63
2023/08/10 00:11:17;;;;;;;0.98;0.63;;;;;;;17.14;87.69;99842.97;333637;28;17230;-61
2023/08/10 00:11:28;;;;;;;0.98;0.70;;;;;;;17.14;87.52;99837.69;336245;28;6509;-63
2023/08/10 00:11:41;;;;;;;1.10;0.70;;;;;;;17.13;87.71;99835.16;336339;28;4548;-62
2023/08/10 00:11:53;;;;;;;1.45;0.80;;;;;;;17.14;87.43;99831.59;333871;28;17883;-63
2023/08/10 00:12:06;;;;;;;1.30;0.75;;;;;;;17.12;87.48;99839.56;335259;28;4735;-63
2023/08/10 00:12:18;;;;;;;1.00;0.70;;;;;;;17.12;87.79;99830.81;332602;28;11777;-61
2023/08/10 00:12:31;;;;;;;0.70;0.70;;;;;;;17.11;87.95;99843.13;336127;28;4601;-62
2023/08/10 00:12:43;;;;;;;0.65;0.65;;;;;;;17.10;87.84;99838.81;333267;28;18074;-63
2023/08/10 00:12:55;;;;;;;0.63;0.60;;;;;;;17.11;87.85;99848.38;336367;28;4626;-63
2023/08/10 00:13:08;;;;;;;0.68;0.68;;;;;;;17.11;87.71;99843.13;338059;28;4697;-62
2023/08/10 00:13:20;;;;;;;0.65;0.60;;;;;;;17.11;87.52;99843.13;329762;28;18136;-63
2023/08/10 00:13:32;;;;;;;1.15;0.60;;;;;;;17.11;87.52;99840.50;335322;28;4993;-63
2023/08/10 00:13:44;;;;;;;1.20;0.60;;;;;;;17.10;87.42;99841.44;330807;28;17938;-63
2023/08/10 00:13:56;;;;;;;0.63;0.52;;;;;;;17.10;87.59;99846.69;336723;28;4725;-63
2023/08/10 00:14:08;;;;;;;0.60;0.60;;;;;;;17.09;87.42;99839.72;330278;28;17879;-63
2023/08/10 00:14:20;;;;;;;1.30;0.80;;;;;;;17.09;87.37;99844.97;335162;28;5536;-62
2023/08/10 00:14:32;;;;;;;1.23;0.73;;;;;;;17.08;87.54;99839.81;333964;28;11580;-62
2023/08/10 00:14:44;;;;;;;0.60;0.60;;;;;;;17.07;87.62;99836.34;335506;28;4482;-62
2023/08/10 00:14:57;;;;;;;0.77;0.70;;;;;;;17.08;87.42;99835.44;336150;28;4764;-62
2023/08/10 00:15:09;;;;;;;0.82;0.70;;;;;;;17.08;87.61;99840.69;333937;28;18203;-63
2023/08/10 00:15:21;;;;;;;0.63;0.52;;;;;;;17.08;87.52;99838.06;335571;28;4492;-63
2023/08/10 00:15:34;;;;;;;0.88;0.70;;;;;;;17.09;87.71;99839.72;334124;28;9283;-63
2023/08/10 00:15:46;;;;;;;0.80;0.70;;;;;;;17.08;87.72;99839.81;335144;28;5138;-64
2023/08/10 00:15:58;;;;;;;0.50;0.50;;;;;;;17.06;87.88;99839.88;336215;28;4510;-63
2023/08/10 00:16:10;;;;;;;0.50;0.50;;;;;;;17.05;88.17;99838.22;334035;28;18408;-63
2023/08/10 00:16:22;;;;;;;0.60;0.57;;;;;;;17.03;88.27;99840.06;335813;28;4521;-63
2023/08/10 00:16:34;;;;;;;0.80;0.70;;;;;;;17.04;88.04;99835.66;332794;28;17990;-62
2023/08/10 00:16:47;;;;;;;0.80;0.70;;;;;;;17.03;87.93;99834.81;331588;28;4705;-62
2023/08/10 00:16:59;;;;;;;0.63;0.63;;;;;;;17.01;88.18;99831.44;333738;28;16736;-62
2023/08/10 00:17:11;;;;;;;0.75;0.73;;;;;;;17.01;88.31;99839.31;337584;28;5261;-62
2023/08/10 00:17:23;;;;;;;1.73;0.70;;;;;;;17.01;88.21;99841.94;337002;28;5204;-63
2023/08/10 00:17:35;;;;;;;2.20;0.70;;;;;;;17.02;88.04;99837.53;334077;28;18001;-62
2023/08/10 00:17:49;;;;;;;1.65;0.65;;;;;;;16.99;88.28;99838.56;337168;28;5356;-63
2023/08/10 00:18:01;;;;;;;0.65;0.60;;;;;;;17.01;88.31;99841.94;334723;28;18203;-61
2023/08/10 00:18:13;;;;;;;0.70;0.60;;;;;;;17.01;88.15;99836.69;336919;28;4685;-62
2023/08/10 00:18:25;;;;;;;0.75;0.60;;;;;;;17.01;88.08;99836.69;334393;28;5739;-62
2023/08/10 00:18:37;;;;;;;0.77;0.60;;;;;;;17.00;88.18;99834.97;337538;28;5229;-63
2023/08/10 00:18:49;;;;;;;0.65;0.52;;;;;;;16.99;88.47;99833.31;337399;28;4820;-62
2023/08/10 00:19:01;;;;;;;0.50;0.50;;;;;;;17.00;88.23;99836.78;334379;28;18031;-63
2023/08/10 00:19:13;;;;;;;0.47;0.47;;;;;;;16.99;88.56;99838.56;336836;28;5530;-62
2023/08/10 00:19:25;;;;;;;0.50;0.50;;;;;;;17.00;88.43;99837.59;334428;28;18274;-63
2023/08/10 00:19:37;;;;;;;0.52;0.52;;;;;;;17.03;88.21;99840.06;331999;28;4604;-63
2023/08/10 00:19:50;;;;;;;0.60;0.60;;;;;;;17.02;88.34;99833.13;333800;28;12212;-63
2023/08/10 00:20:05;;;;;;;0.70;0.70;;;;;;;17.02;88.27;99838.38;336199;28;4663;-63
2023/08/10 00:20:17;;;;;;;1.00;0.70;;;;;;;17.01;88.23;99834.06;333950;28;18287;-62
2023/08/10 00:20:29;;;;;;;1.15;0.70;;;;;;;17.00;88.16;99834.97;335180;28;4801;-64
2023/08/10 00:20:41;;;;;;;1.02;0.70;;;;;;;17.02;88.15;99832.28;337409;28;5203;-63
2023/08/10 00:20:53;;;;;;;0.88;0.68;;;;;;;16.99;88.04;99833.31;337741;28;4525;-62
2023/08/10 00:21:05;;;;;;;0.90;0.65;;;;;;;16.98;88.19;99834.22;334607;28;11316;-63
2023/08/10 00:21:17;;;;;;;1.40;0.80;;;;;;;16.98;88.19;99831.59;337254;28;4519;-62
2023/08/10 00:21:30;;;;;;;1.52;0.77;;;;;;;16.97;88.47;99840.41;334699;28;10180;-64
2023/08/10 00:21:42;;;;;;;0.75;0.50;;;;;;;16.99;88.15;99838.56;337379;28;4499;-63
2023/08/10 00:21:54;;;;;;;0.98;0.50;;;;;;;16.98;88.16;99836.84;337594;28;4533;-63
2023/08/10 00:22:06;;;;;;;0.65;0.52;;;;;;;17.00;88.15;99839.41;334816;28;18139;-63
2023/08/10 00:22:18;;;;;;;0.60;0.60;;;;;;;16.97;88.13;99830.75;337125;28;5019;-64
2023/08/10 00:22:30;;;;;;;0.68;0.60;;;;;;;16.99;88.08;99833.31;337193;28;4809;-63
2023/08/10 00:22:42;;;;;;;0.80;0.68;;;;;;;16.98;87.96;99836.84;333876;28;18836;-63
2023/08/10 00:22:54;;;;;;;0.75;0.70;;;;;;;17.01;88.05;99841.94;336549;28;5242;-63
2023/08/10 00:23:06;;;;;;;0.80;0.70;;;;;;;16.99;87.78;99838.56;335030;28;17826;-63
2023/08/10 00:23:18;;;;;;;0.73;0.70;;;;;;;16.99;88.13;99832.47;335574;28;4918;-63
2023/08/10 00:23:30;;;;;;;1.48;0.70;;;;;;;17.01;87.77;99838.47;333080;28;10588;-64
2023/08/10 00:23:42;;;;;;;1.48;0.63;;;;;;;17.02;87.58;99842.78;336373;28;4627;-62
2023/08/10 00:23:56;;;;;;;1.20;0.75;;;;;;;17.04;87.56;99841.75;331952;28;5358;-63
2023/08/10 00:24:08;;;;;;;2.20;0.90;;;;;;;17.05;87.42;99840.84;332559;28;17756;-63
2023/08/10 00:24:20;;;;;;;2.10;0.90;;;;;;;17.06;87.38;99839.88;335886;28;9612;-63
2023/08/10 00:24:32;;;;;;;0.82;0.57;;;;;;;17.05;87.19;99835.59;329438;28;19360;-63
2023/08/10 00:24:44;;;;;;;0.93;0.60;;;;;;;17.06;87.19;99839.88;336394;28;5402;-62
2023/08/10 00:24:56;;;;;;;1.70;0.60;;;;;;;17.07;87.29;99836.34;332464;29;18355;-62
2023/08/10 00:25:08;;;;;;;1.70;0.60;;;;;;;17.07;87.28;99841.59;335104;29;5272;-63
2023/08/10 00:25:20;;;;;;;1.00;0.70;;;;;;;17.04;87.16;99836.50;335112;29;4671;-62
2023/08/10 00:25:33;;;;;;;0.95;0.70;;;;;;;17.04;87.09;99836.50;327331;29;17653;-64
2023/08/10 00:25:45;;;;;;;0.82;0.60;;;;;;;17.04;87.29;99843.53;335263;29;5132;-62
2023/08/10 00:25:57;;;;;;;0.90;0.50;;;;;;;17.02;87.34;99835.75;332624;28;18038;-62
2023/08/10 00:26:09;;;;;;;1.10;0.52;;;;;;;17.01;87.35;99846.34;336335;28;5561;-62
2023/08/10 00:26:21;;;;;;;1.50;0.75;;;;;;;16.96;87.86;99843.97;334022;28;4557;-64
2023/08/10 00:26:33;;;;;;;1.00;0.88;;;;;;;16.94;88.12;99845.84;336140;28;4687;-62
2023/08/10 00:26:46;;;;;;;1.00;0.82;;;;;;;16.96;88.01;99843.97;336173;28;4659;-63
2023/08/10 00:26:58;;;;;;;0.70;0.65;;;;;;;16.95;87.70;99844.91;333856;28;17861;-63
2023/08/10 00:27:10;;;;;;;0.82;0.73;;;;;;;16.94;87.75;99838.81;336518;28;4743;-63
2023/08/10 00:27:23;;;;;;;0.80;0.70;;;;;;;16.94;87.94;99840.56;335728;28;4658;-63
2023/08/10 00:27:38;;;;;;;0.80;0.75;;;;;;;16.94;87.62;99840.56;333314;28;18192;-63
2023/08/10 00:27:50;;;;;;;0.70;0.70;;;;;;;16.94;87.68;99835.34;332906;28;18145;-63
2023/08/10 00:28:04;;;;;;;0.80;0.65;;;;;;;16.95;87.58;99842.28;333381;28;12195;-64
2023/08/10 00:28:15;;;;;;;0.80;0.68;;;;;;;16.93;87.68;99838.91;335836;28;5343;-63
2023/08/10 00:28:27;;;;;;;0.75;0.70;;;;;;;16.95;87.98;99842.28;333867;28;11598;-64
2023/08/10 00:28:39;;;;;;;0.70;0.70;;;;;;;16.96;87.87;99841.34;336747;28;5313;-63
2023/08/10 00:28:52;;;;;;;0.80;0.73;;;;;;;16.95;87.77;99831.78;336524;28;5383;-62
2023/08/10 00:29:04;;;;;;;1.13;0.80;;;;;;;16.94;87.65;99846.69;333740;28;17212;-63
2023/08/10 00:29:16;;;;;;;0.90;0.73;;;;;;;16.94;87.68;99840.56;336745;28;4730;-64
2023/08/10 00:29:28;;;;;;;0.75;0.65;;;;;;;16.93;87.97;99839.75;333447;28;16702;-64
2023/08/10 00:29:40;;;;;;;0.57;0.57;;;;;;;16.94;88.01;99840.56;336223;28;4581;-63
2023/08/10 00:29:52;;;;;;;0.95;0.57;;;;;;;16.95;88.21;99839.66;336281;28;5512;-63
2023/08/10 00:30:06;;;;;;;1.48;0.68;;;;;;;16.92;88.17;99842.44;334794;28;18946;-63
2023/08/10 00:30:18;;;;;;;1.27;0.70;;;;;;;16.92;88.10;99842.44;333857;28;17967;-64
2023/08/10 00:30:30;;;;;;;1.50;0.90;;;;;;;16.92;88.10;99845.94;335119;28;4695;-63
2023/08/10 00:30:42;;;;;;;1.50;0.90;;;;;;;16.92;88.07;99845.06;335998;28;4652;-64
2023/08/10 00:30:55;;;;;;;0.65;0.65;;;;;;;16.91;87.73;99838.16;334314;28;18034;-63
2023/08/10 00:31:07;;;;;;;0.70;0.70;;;;;;;16.91;87.93;99840.78;336445;28;5266;-63
2023/08/10 00:31:19;;;;;;;1.70;0.80;;;;;;;16.92;87.63;99845.06;331337;28;18221;-63
2023/08/10 00:31:31;;;;;;;2.03;0.90;;;;;;;16.92;87.73;99840.69;334160;28;17413;-63
2023/08/10 00:31:43;;;;;;;2.58;0.80;;;;;;;16.91;87.70;99840.78;334220;28;12034;-64
2023/08/10 00:31:55;;;;;;;2.22;0.80;;;;;;;16.94;87.49;99840.56;336736;28;4952;-63
2023/08/10 00:32:07;;;;;;;2.10;0.70;;;;;;;16.93;87.56;99839.75;335937;28;4615;-63
2023/08/10 00:32:19;;;;;;;0.60;0.60;;;;;;;16.93;87.65;99844.16;333456;28;18224;-63
2023/08/10 00:32:31;;;;;;;0.70;0.65;;;;;;;16.94;87.69;99830.06;335959;28;4673;-63
2023/08/10 00:32:44;;;;;;;0.73;0.70;;;;;;;16.91;87.52;99836.34;327641;28;15928;-64
2023/08/10 00:32:56;;;;;;;0.77;0.63;;;;;;;16.92;87.59;99838.06;334860;28;4489;-63
2023/08/10 00:33:08;;;;;;;0.93;0.60;;;;;;;16.90;87.74;99837.31;336175;28;5411;-63
2023/08/10 00:33:28;;;;;;;0.90;0.70;;;;;;;16.90;87.75;99836.44;333770;28;17483;-64
2023/08/10 00:33:45;;;;;;;0.70;0.70;;;;;;;16.91;87.52;99835.53;332089;28;17856;-63
2023/08/10 00:33:57;;;;;;;0.95;0.85;;;;;;;16.91;87.61;99835.53;336259;28;5136;-62
2023/08/10 00:34:09;;;;;;;0.80;0.80;;;;;;;16.91;87.62;99838.97;336768;28;4488;-63
2023/08/10 00:34:21;;;;;;;0.95;0.73;;;;;;;16.91;87.52;99836.34;329166;28;18709;-63
2023/08/10 00:34:33;;;;;;;1.17;0.77;;;;;;;16.92;87.76;99837.19;336800;28;4582;-63
2023/08/10 00:34:45;;;;;;;1.20;0.80;;;;;;;16.92;87.56;99831.94;333824;28;18217;-63
2023/08/10 00:34:57;;;;;;;0.80;0.70;;;;;;;16.92;87.18;99837.19;336407;28;5490;-62
2023/08/10 00:35:09;;;;;;;0.82;0.60;;;;;;;16.92;87.24;99831.94;335203;28;11611;-64
2023/08/10 00:35:23;;;;;;;1.60;0.70;;;;;;;16.93;87.22;99838.91;336090;28;4687;-63
2023/08/10 00:35:38;;;;;;;1.77;0.70;;;;;;;16.91;87.12;99825.84;335605;28;18223;-62
2023/08/10 00:35:50;;;;;;;0.95;0.70;;;;;;;16.90;87.10;99834.69;333416;28;18015;-62
2023/08/10 00:36:06;;;;;;;0.95;0.80;;;;;;;16.90;87.16;99833.81;336105;28;4558;-63
2023/08/10 00:36:19;;;;;;;1.30;0.98;;;;;;;16.89;87.06;99835.59;332973;28;17867;-62
2023/08/10 00:36:31;;;;;;;1.52;0.88;;;;;;;16.88;87.28;99831.28;333792;28;18059;-62
2023/08/10 00:36:43;;;;;;;1.27;0.80;;;;;;;16.88;87.25;99830.44;336768;28;5400;-62
2023/08/10 00:36:55;;;;;;;1.38;0.80;;;;;;;16.89;87.32;99832.13;335600;28;18097;-63
2023/08/10 00:37:06;;;;;;;1.00;0.80;;;;;;;16.89;87.27;99837.38;333642;28;17325;-64
2023/08/10 00:37:18;;;;;;;0.88;0.70;;;;;;;16.88;87.20;99831.28;331529;28;5442;-64
2023/08/10 00:37:31;;;;;;;0.70;0.70;;;;;;;16.87;87.38;99828.75;332930;28;11804;-64
2023/08/10 00:37:43;;;;;;;0.70;0.70;;;;;;;16.87;87.20;99834.00;334941;29;4495;-62
2023/08/10 00:37:55;;;;;;;0.98;0.70;;;;;;;16.86;87.30;99827.91;334992;29;5170;-63
2023/08/10 00:38:07;;;;;;;1.00;0.70;;;;;;;16.86;87.28;99832.28;332500;29;17492;-64
2023/08/10 00:38:19;;;;;;;1.20;0.70;;;;;;;16.86;87.29;99827.91;334749;28;4821;-63
2023/08/10 00:38:31;;;;;;;1.70;0.80;;;;;;;16.86;87.19;99822.66;331296;28;4553;-62
2023/08/10 00:38:43;;;;;;;2.17;0.90;;;;;;;16.85;87.31;99828.81;333307;28;19143;-61
2023/08/10 00:38:56;;;;;;;2.33;0.93;;;;;;;16.86;87.46;99829.66;335891;28;4708;-62
2023/08/10 00:39:08;;;;;;;1.05;0.70;;;;;;;16.86;87.24;99827.03;332631;28;18446;-63
2023/08/10 00:39:20;;;;;;;0.75;0.70;;;;;;;16.85;87.02;99835.88;336228;28;4628;-62
2023/08/10 00:39:32;;;;;;;0.70;0.70;;;;;;;16.84;87.19;99828.91;333749;28;19043;-63
2023/08/10 00:39:44;;;;;;;0.70;0.70;;;;;;;16.83;87.38;99830.69;336791;28;5486;-63
2023/08/10 00:39:56;;;;;;;0.90;0.65;;;;;;;16.83;87.12;99842.97;333640;28;18142;-64
2023/08/10 00:40:10;;;;;;;1.67;0.73;;;;;;;16.81;87.10;99834.31;330983;28;5489;-64
2023/08/10 00:40:22;;;;;;;1.33;0.70;;;;;;;16.82;87.19;99836.00;335104;28;11390;-63
2023/08/10 00:40:34;;;;;;;0.82;0.70;;;;;;;16.77;87.30;99829.22;336649;28;4737;-64
2023/08/10 00:40:46;;;;;;;0.88;0.70;;;;;;;16.78;87.30;99840.56;335089;28;11811;-63
2023/08/10 00:40:59;;;;;;;1.08;0.70;;;;;;;16.77;87.13;99834.47;337395;28;4774;-63
2023/08/10 00:41:11;;;;;;;1.27;0.70;;;;;;;16.78;86.99;99830.06;336893;28;5515;-62
2023/08/10 00:41:23;;;;;;;1.10;0.60;;;;;;;16.78;87.08;99837.94;335067;28;18033;-63
2023/08/10 00:41:35;;;;;;;0.70;0.60;;;;;;;16.77;87.20;99834.47;332918;28;4678;-62
2023/08/10 00:41:47;;;;;;;0.70;0.60;;;;;;;16.77;87.01;99834.47;334728;28;18199;-62
2023/08/10 00:41:59;;;;;;;0.77;0.60;;;;;;;16.76;87.07;99832.78;336536;28;5411;-63
2023/08/10 00:42:12;;;;;;;0.88;0.65;;;;;;;16.75;87.26;99827.63;337348;28;5195;-62
2023/08/10 00:42:24;;;;;;;0.90;0.70;;;;;;;16.76;87.37;99831.91;331221;28;18370;-62
2023/08/10 00:42:36;;;;;;;1.60;0.70;;;;;;;16.75;87.13;99836.31;333884;28;11059;-64
2023/08/10 00:42:49;;;;;;;1.35;0.70;;;;;;;16.76;87.15;99832.78;336329;28;5442;-63
2023/08/10 00:43:02;;;;;;;1.27;0.70;;;;;;;16.77;87.09;99842.34;336875;28;5175;-63
2023/08/10 00:43:14;;;;;;;0.75;0.70;;;;;;;16.77;87.27;99838.88;334294;28;18112;-62
2023/08/10 00:43:26;;;;;;;0.80;0.70;;;;;;;16.77;87.17;99833.63;335565;28;4748;-62
2023/08/10 00:43:38;;;;;;;0.90;0.73;;;;;;;16.76;87.41;99832.78;333754;28;18228;-63
2023/08/10 00:43:50;;;;;;;1.15;0.70;;;;;;;16.77;87.49;99833.63;336194;28;6819;-63
2023/08/10 00:44:03;;;;;;;1.58;0.90;;;;;;;16.77;87.36;99829.22;335336;28;5503;-63
2023/08/10 00:44:16;;;;;;;1.35;0.80;;;;;;;16.79;87.27;99831.75;332469;28;18967;-63
2023/08/10 00:44:28;;;;;;;0.75;0.65;;;;;;;16.77;87.54;99834.47;327769;28;6393;-63
2023/08/10 00:44:40;;;;;;;0.60;0.60;;;;;;;16.78;87.71;99835.31;336407;28;4665;-62
2023/08/10 00:44:52;;;;;;;0.60;0.60;;;;;;;16.77;87.50;99834.47;334170;28;5159;-63
2023/08/10 00:45:05;;;;;;;1.20;0.70;;;;;;;16.78;87.37;99837.94;331745;28;18822;-63
2023/08/10 00:45:17;;;;;;;1.42;0.82;;;;;;;16.77;87.23;99831.84;334263;28;12271;-63
2023/08/10 00:45:29;;;;;;;1.55;0.80;;;;;;;16.77;87.31;99834.47;333969;28;18107;-61
2023/08/10 00:45:42;;;;;;;0.80;0.68;;;;;;;16.75;87.38;99838.94;335819;28;5330;-63
2023/08/10 00:45:54;;;;;;;0.60;0.50;;;;;;;16.76;87.74;99832.78;333537;28;15981;-61
2023/08/10 00:46:10;;;;;;;0.60;0.60;;;;;;;16.76;87.47;99832.78;336650;28;5226;-62
2023/08/10 00:46:22;;;;;;;0.70;0.70;;;;;;;16.75;87.48;99838.94;334690;28;17853;-63
2023/08/10 00:46:34;;;;;;;0.60;0.60;;;;;;;16.75;87.30;99836.31;334406;28;5248;-63
2023/08/10 00:46:46;;;;;;;0.50;0.50;;;;;;;16.73;87.38;99840.81;337275;28;4671;-62
2023/08/10 00:46:59;;;;;;;0.70;0.50;;;;;;;16.72;87.32;99836.50;334641;28;15164;-63
2023/08/10 00:47:12;;;;;;;0.68;0.52;;;;;;;16.71;87.51;99834.81;336127;28;6053;-62
2023/08/10 00:47:25;;;;;;;0.57;0.50;;;;;;;16.73;87.21;99838.19;328568;28;17990;-62
2023/08/10 00:47:38;;;;;;;0.75;0.52;;;;;;;16.73;87.20;99838.19;336487;28;4950;-62
2023/08/10 00:47:52;;;;;;;0.98;0.60;;;;;;;16.73;86.89;99835.56;332674;28;17405;-63
2023/08/10 00:48:04;;;;;;;0.75;0.50;;;;;;;16.72;86.64;99836.50;333322;28;18454;-63
2023/08/10 00:48:17;;;;;;;0.82;0.50;;;;;;;16.72;86.93;99836.50;335140;28;5202;-63
2023/08/10 00:48:30;;;;;;;0.98;0.60;;;;;;;16.71;86.84;99834.81;333871;28;16626;-64
2023/08/10 00:48:42;;;;;;;0.83;0.67;;;;;;;16.72;87.03;99836.50;335650;28;4778;-62
2023/08/10 00:48:54;;;;;;;0.80;0.70;;;;;;;16.71;87.01;99834.81;335701;28;4595;-61
2023/08/10 00:49:06;;;;;;;0.80;0.70;;;;;;;16.70;86.55;99842.75;332677;28;18189;-63
2023/08/10 00:49:18;;;;;;;0.73;0.60;;;;;;;16.65;86.11;99837.75;335985;28;4630;-62
2023/08/10 00:49:31;;;;;;;0.80;0.60;;;;;;;16.65;86.27;99840.38;333737;28;12452;-61
2023/08/10 00:49:43;;;;;;;0.73;0.60;;;;;;;16.65;86.44;99840.38;336451;28;4574;-63
2023/08/10 00:49:55;;;;;;;0.68;0.63;;;;;;;16.66;86.28;99843.84;333313;28;14186;-64
2023/08/10 00:50:08;;;;;;;0.60;0.60;;;;;;;16.64;86.61;99838.72;336036;28;5828;-62
2023/08/10 00:50:20;;;;;;;0.85;0.60;;;;;;;16.64;86.77;99836.09;328657;28;17960;-63
2023/08/10 00:50:32;;;;;;;1.23;0.80;;;;;;;16.62;86.94;99845.81;336300;28;4757;-63
2023/08/10 00:50:44;;;;;;;1.10;0.80;;;;;;;16.64;86.92;99843.09;333376;28;10283;-64
2023/08/10 00:50:56;;;;;;;0.65;0.60;;;;;;;16.62;86.96;99834.47;336097;28;7130;-63
2023/08/10 00:51:09;;;;;;;0.52;0.50;;;;;;;16.60;87.03;99844.19;335594;28;4669;-62
2023/08/10 00:51:21;;;;;;;0.50;0.50;;;;;;;16.60;86.82;99839.81;333031;28;18207;-63
2023/08/10 00:51:33;;;;;;;0.50;0.50;;;;;;;16.58;86.95;99839.88;336336;28;4685;-63
2023/08/10 00:51:45;;;;;;;0.50;0.50;;;;;;;16.58;86.68;99842.50;335494;28;5360;-62
2023/08/10 00:51:58;;;;;;;0.77;0.75;;;;;;;16.57;86.94;99842.59;329027;28;17695;-63
2023/08/10 00:52:10;;;;;;;1.08;0.90;;;;;;;16.56;86.77;99843.53;333383;28;10490;-63
2023/08/10 00:52:22;;;;;;;1.17;0.80;;;;;;;16.55;86.95;99840.03;334929;28;6648;-63
2023/08/10 00:52:36;;;;;;;0.93;0.70;;;;;;;16.53;86.83;99841.91;336135;28;4791;-63
2023/08/10 00:52:48;;;;;;;0.50;0.50;;;;;;;16.53;86.84;99846.31;332613;28;18183;-62
2023/08/10 00:53:00;;;;;;;0.52;0.50;;;;;;;16.52;86.87;99839.34;334084;28;11873;-64
2023/08/10 00:53:13;;;;;;;0.85;0.60;;;;;;;16.50;87.03;99843.84;333777;28;17333;-64
2023/08/10 00:53:25;;;;;;;0.93;0.70;;;;;;;16.48;87.15;99845.69;336479;28;4682;-62
2023/08/10 00:53:37;;;;;;;0.80;0.70;;;;;;;16.48;87.12;99840.44;333415;28;4587;-63
2023/08/10 00:53:50;;;;;;;0.60;0.60;;;;;;;16.48;87.16;99845.69;336648;28;5241;-64
2023/08/10 00:54:04;;;;;;;0.75;0.60;;;;;;;16.47;87.05;99844.84;331743;28;18373;-62
2023/08/10 00:54:16;;;;;;;0.88;0.50;;;;;;;16.46;87.38;99835.31;332908;28;11806;-63
2023/08/10 00:54:28;;;;;;;2.00;0.60;;;;;;;16.46;87.18;99842.31;336041;28;5217;-64
2023/08/10 00:54:41;;;;;;;1.90;0.70;;;;;;;16.46;87.27;99844.94;336502;28;5165;-64
2023/08/10 00:54:53;;;;;;;0.90;0.60;;;;;;;16.46;87.30;99844.94;329181;28;18199;-64
2023/08/10 00:55:05;;;;;;;0.50;0.50;;;;;;;16.45;87.21;99844.09;335382;28;4710;-63
2023/08/10 00:55:18;;;;;;;0.50;0.50;;;;;;;16.44;87.51;99844.16;333695;28;5177;-63
2023/08/10 00:55:30;;;;;;;1.73;0.60;;;;;;;16.43;87.43;99840.72;336696;28;4559;-62
2023/08/10 00:55:43;;;;;;;2.13;0.68;;;;;;;16.43;87.49;99839.88;333716;28;18598;-63
2023/08/10 00:55:56;;;;;;;0.93;0.63;;;;;;;16.42;87.66;99844.28;335281;28;4504;-62
2023/08/10 00:56:11;;;;;;;0.88;0.68;;;;;;;16.43;87.55;99839.88;332464;28;18172;-63
2023/08/10 00:56:23;;;;;;;0.77;0.60;;;;;;;16.42;87.55;99840.78;334658;28;18125;-63
2023/08/10 00:56:35;;;;;;;0.50;0.50;;;;;;;16.42;87.51;99843.41;333123;28;19295;-63
2023/08/10 00:56:47;;;;;;;0.50;0.50;;;;;;;16.41;87.71;99841.72;335195;28;4661;-64
2023/08/10 00:56:59;;;;;;;0.50;0.50;;;;;;;16.40;87.63;99840.03;332939;28;18156;-63
2023/08/10 00:57:11;;;;;;;0.55;0.55;;;;;;;16.39;87.58;99847.06;335924;28;4697;-63
2023/08/10 00:57:23;;;;;;;0.60;0.55;;;;;;;16.37;87.59;99846.28;333580;28;4596;-63
2023/08/10 00:57:35;;;;;;;0.63;0.60;;;;;;;16.37;87.47;99841.88;336682;28;5195;-63
2023/08/10 00:57:47;;;;;;;0.70;0.60;;;;;;;16.36;87.47;99844.59;329251;28;13242;-64
2023/08/10 00:58:00;;;;;;;0.60;0.60;;;;;;;16.31;87.62;99852.69;336087;28;4827;-64
2023/08/10 00:58:12;;;;;;;0.60;0.50;;;;;;;16.31;87.70;99847.44;336145;28;4682;-63
2023/08/10 00:58:24;;;;;;;1.40;0.60;;;;;;;16.28;88.38;99849.38;328823;28;18158;-63
2023/08/10 00:58:37;;;;;;;1.33;0.60;;;;;;;16.26;88.50;99841.63;336753;28;5439;-62
2023/08/10 00:58:49;;;;;;;2.00;0.70;;;;;;;16.26;88.54;99843.38;333098;28;18416;-62
2023/08/10 00:59:03;;;;;;;1.30;0.68;;;;;;;16.25;88.66;99841.69;336450;28;5028;-63
2023/08/10 00:59:15;;;;;;;0.95;0.60;;;;;;;16.25;88.35;99847.78;334958;28;18310;-63
2023/08/10 00:59:29;;;;;;;1.00;0.70;;;;;;;16.24;88.27;99846.09;331837;28;5076;-63